sensor_id;sensor_type;location;lat;lon;timestamp;pressure;altitude;pressure_sealevel;temperature
24740;BMP280;45234;48.148;17.128;2022-08-01T00:01:13;99862.03;;;20.50
24740;BMP280;45234;48.148;17.128;2022-08-01T00:03:40;99861.75;;;20.57
24740;BMP280;45234;48.148;17.128;2022-08-01T00:06:16;99858.34;;;20.51
24740;BMP280;45234;48.148;17.128;2022-08-01T00:08:44;99849.63;;;20.56
24740;BMP280;45234;48.148;17.128;2022-08-01T00:11:11;99853.84;;;20.57
24740;BMP280;45234;48.148;17.128;2022-08-01T00:13:39;99846.72;;;20.57
24740;BMP280;45234;48.148;17.128;2022-08-01T00:16:16;99851.75;;;20.54
24740;BMP280;45234;48.148;17.128;2022-08-01T00:18:47;99840.97;;;20.50
24740;BMP280;45234;48.148;17.128;2022-08-01T00:21:18;99845.72;;;20.48
24740;BMP280;45234;48.148;17.128;2022-08-01T00:23:45;99842.28;;;20.48
24740;BMP280;45234;48.148;17.128;2022-08-01T00:26:13;99838.34;;;20.45
24740;BMP280;45234;48.148;17.128;2022-08-01T00:28:41;99835.97;;;20.43
24740;BMP280;45234;48.148;17.128;2022-08-01T00:31:08;99835.19;;;20.43
24740;BMP280;45234;48.148;17.128;2022-08-01T00:33:38;99831.50;;;20.44
24740;BMP280;45234;48.148;17.128;2022-08-01T00:36:06;99832.78;;;20.47
24740;BMP280;45234;48.148;17.128;2022-08-01T00:38:33;99825.94;;;20.45
24740;BMP280;45234;48.148;17.128;2022-08-01T00:41:00;99822.81;;;20.43
24740;BMP280;45234;48.148;17.128;2022-08-01T00:43:27;99825.19;;;20.40
24740;BMP280;45234;48.148;17.128;2022-08-01T00:45:54;99822.81;;;20.38
24740;BMP280;45234;48.148;17.128;2022-08-01T00:48:21;99824.41;;;20.39
24740;BMP280;45234;48.148;17.128;2022-08-01T00:50:49;99825.97;;;20.40
24740;BMP280;45234;48.148;17.128;2022-08-01T00:53:16;99825.97;;;20.40
24740;BMP280;45234;48.148;17.128;2022-08-01T00:55:44;99831.25;;;20.40
24740;BMP280;45234;48.148;17.128;2022-08-01T00:58:12;99838.06;;;20.41
24740;BMP280;45234;48.148;17.128;2022-08-01T01:00:39;99835.44;;;20.36
24740;BMP280;45234;48.148;17.128;2022-08-01T01:03:20;99825.97;;;20.30
24740;BMP280;45234;48.148;17.128;2022-08-01T01:06:18;99829.44;;;20.16
24740;BMP280;45234;48.148;17.128;2022-08-01T01:09:19;99822.03;;;20.08
24740;BMP280;45234;48.148;17.128;2022-08-01T01:12:12;99822.56;;;20.04
24740;BMP280;45234;48.148;17.128;2022-08-01T01:14:53;99829.19;;;20.07
24740;BMP280;45234;48.148;17.128;2022-08-01T01:17:28;99821.53;;;20.00
24740;BMP280;45234;48.148;17.128;2022-08-01T01:20:20;99828.38;;;20.01
24740;BMP280;45234;48.148;17.128;2022-08-01T01:22:57;99831.25;;;20.00
24740;BMP280;45234;48.148;17.128;2022-08-01T01:28:20;99826.53;;;19.97
24740;BMP280;45234;48.148;17.128;2022-08-01T01:30:53;99823.13;;;19.96
24740;BMP280;45234;48.148;17.128;2022-08-01T01:33:25;99831.53;;;19.98
24740;BMP280;45234;48.148;17.128;2022-08-01T01:35:59;99827.03;;;19.99
24740;BMP280;45234;48.148;17.128;2022-08-01T01:38:32;99831.25;;;20.00
24740;BMP280;45234;48.148;17.128;2022-08-01T01:41:02;99822.06;;;19.97
24740;BMP280;45234;48.148;17.128;2022-08-01T01:43:29;99823.91;;;19.97
24740;BMP280;45234;48.148;17.128;2022-08-01T01:46:00;99821.28;;;19.97
24740;BMP280;45234;48.148;17.128;2022-08-01T01:48:29;99817.06;;;20.01
24740;BMP280;45234;48.148;17.128;2022-08-01T01:50:58;99821.78;;;20.04
24740;BMP280;45234;48.148;17.128;2022-08-01T01:53:28;99816.78;;;20.02
24740;BMP280;45234;48.148;17.128;2022-08-01T01:55:57;99813.38;;;20.02
24740;BMP280;45234;48.148;17.128;2022-08-01T01:58:26;99816.50;;;20.04
24740;BMP280;45234;48.148;17.128;2022-08-01T02:00:56;99817.06;;;20.01
24740;BMP280;45234;48.148;17.128;2022-08-01T02:03:29;99823.09;;;20.01
24740;BMP280;45234;48.148;17.128;2022-08-01T02:05:58;99813.88;;;19.99
24740;BMP280;45234;48.148;17.128;2022-08-01T02:08:25;99815.75;;;19.98
24740;BMP280;45234;48.148;17.128;2022-08-01T02:10:57;99808.66;;;19.89
24740;BMP280;45234;48.148;17.128;2022-08-01T02:14:03;99820.97;;;19.83
24740;BMP280;45234;48.148;17.128;2022-08-01T02:16:35;99824.94;;;19.81
24740;BMP280;45234;48.148;17.128;2022-08-01T02:19:02;99820.19;;;19.83
24740;BMP280;45234;48.148;17.128;2022-08-01T02:21:35;99822.81;;;19.83
24740;BMP280;45234;48.148;17.128;2022-08-01T02:24:31;99816.00;;;19.87
24740;BMP280;45234;48.148;17.128;2022-08-01T02:26:59;99824.16;;;19.95
24740;BMP280;45234;48.148;17.128;2022-08-01T02:29:46;99822.56;;;19.99
24740;BMP280;45234;48.148;17.128;2022-08-01T02:32:24;99818.13;;;20.10
24740;BMP280;45234;48.148;17.128;2022-08-01T02:34:53;99819.16;;;20.24
24740;BMP280;45234;48.148;17.128;2022-08-01T02:37:24;99826.78;;;20.41
24740;BMP280;45234;48.148;17.128;2022-08-01T02:39:54;99813.88;;;20.50
24740;BMP280;45234;48.148;17.128;2022-08-01T02:42:23;99810.41;;;20.59
24740;BMP280;45234;48.148;17.128;2022-08-01T02:44:52;99803.00;;;20.66
24740;BMP280;45234;48.148;17.128;2022-08-01T02:47:21;99803.78;;;20.72
24740;BMP280;45234;48.148;17.128;2022-08-01T02:49:50;99805.31;;;20.78
24740;BMP280;45234;48.148;17.128;2022-08-01T02:52:22;99804.00;;;20.80
24740;BMP280;45234;48.148;17.128;2022-08-01T02:54:53;99807.97;;;20.83
24740;BMP280;45234;48.148;17.128;2022-08-01T02:57:22;99806.06;;;20.89
24740;BMP280;45234;48.148;17.128;2022-08-01T03:00:10;99804.47;;;20.88
24740;BMP280;45234;48.148;17.128;2022-08-01T03:02:40;99805.34;;;20.83
24740;BMP280;45234;48.148;17.128;2022-08-01T03:05:08;99802.16;;;20.81
24740;BMP280;45234;48.148;17.128;2022-08-01T03:07:38;99795.84;;;20.82
24740;BMP280;45234;48.148;17.128;2022-08-01T03:10:09;99795.28;;;20.85
24740;BMP280;45234;48.148;17.128;2022-08-01T03:12:37;99796.09;;;20.86
24740;BMP280;45234;48.148;17.128;2022-08-01T03:15:06;99800.56;;;20.85
24740;BMP280;45234;48.148;17.128;2022-08-01T03:17:37;99803.19;;;20.85
24740;BMP280;45234;48.148;17.128;2022-08-01T03:20:08;99800.56;;;20.85
24740;BMP280;45234;48.148;17.128;2022-08-01T03:22:39;99797.44;;;20.83
24740;BMP280;45234;48.148;17.128;2022-08-01T03:25:08;99799.50;;;20.86
24740;BMP280;45234;48.148;17.128;2022-08-01T03:27:37;99795.28;;;20.85
24740;BMP280;45234;48.148;17.128;2022-08-01T03:30:05;99789.22;;;20.84
24740;BMP280;45234;48.148;17.128;2022-08-01T03:32:34;99790.56;;;20.87
24740;BMP280;45234;48.148;17.128;2022-08-01T03:35:01;99796.09;;;20.91
24740;BMP280;45234;48.148;17.128;2022-08-01T03:37:47;99786.34;;;20.86
24740;BMP280;45234;48.148;17.128;2022-08-01T03:40:43;99800.56;;;20.90
24740;BMP280;45234;48.148;17.128;2022-08-01T03:43:19;99792.16;;;20.83
24740;BMP280;45234;48.148;17.128;2022-08-01T03:45:51;99796.31;;;20.89
24740;BMP280;45234;48.148;17.128;2022-08-01T03:48:25;99802.38;;;20.95
24740;BMP280;45234;48.148;17.128;2022-08-01T03:50:55;99802.88;;;21.02
24740;BMP280;45234;48.148;17.128;2022-08-01T03:53:25;99805.19;;;21.08
24740;BMP280;45234;48.148;17.128;2022-08-01T03:55:56;99806.22;;;21.12
24740;BMP280;45234;48.148;17.128;2022-08-01T03:58:29;99803.31;;;21.19
24740;BMP280;45234;48.148;17.128;2022-08-01T04:00:57;99801.91;;;21.32
24740;BMP280;45234;48.148;17.128;2022-08-01T04:03:25;99808.72;;;21.38
24740;BMP280;45234;48.148;17.128;2022-08-01T04:05:53;99814.47;;;21.45
24740;BMP280;45234;48.148;17.128;2022-08-01T04:08:20;99818.44;;;21.47
24740;BMP280;45234;48.148;17.128;2022-08-01T04:10:55;99818.69;;;21.46
24740;BMP280;45234;48.148;17.128;2022-08-01T04:13:23;99818.22;;;21.44
24740;BMP280;45234;48.148;17.128;2022-08-01T04:15:54;99824.53;;;21.43
24740;BMP280;45234;48.148;17.128;2022-08-01T04:18:22;99828.75;;;21.44
24740;BMP280;45234;48.148;17.128;2022-08-01T04:20:50;99827.16;;;21.43
24740;BMP280;45234;48.148;17.128;2022-08-01T04:23:24;99825.06;;;21.40
24740;BMP280;45234;48.148;17.128;2022-08-01T04:25:53;99825.56;;;21.42
24740;BMP280;45234;48.148;17.128;2022-08-01T04:28:22;99829.00;;;21.42
24740;BMP280;45234;48.148;17.128;2022-08-01T04:30:54;99825.56;;;21.42
24740;BMP280;45234;48.148;17.128;2022-08-01T04:33:30;99827.66;;;21.45
24740;BMP280;45234;48.148;17.128;2022-08-01T04:35:59;99830.31;;;21.45
24740;BMP280;45234;48.148;17.128;2022-08-01T04:38:32;99843.44;;;21.11
24740;BMP280;45234;48.148;17.128;2022-08-01T04:41:00;99839.22;;;21.00
24740;BMP280;45234;48.148;17.128;2022-08-01T04:43:36;99841.19;;;20.79
24740;BMP280;45234;48.148;17.128;2022-08-01T04:46:03;99827.47;;;20.72
24740;BMP280;45234;48.148;17.128;2022-08-01T04:48:31;99834.63;;;20.66
24740;BMP280;45234;48.148;17.128;2022-08-01T04:50:59;99837.53;;;20.60
24740;BMP280;45234;48.148;17.128;2022-08-01T04:53:26;99837.81;;;20.58
24740;BMP280;45234;48.148;17.128;2022-08-01T04:55:54;99837.50;;;20.65
24740;BMP280;45234;48.148;17.128;2022-08-01T04:58:22;99837.75;;;20.68
24740;BMP280;45234;48.148;17.128;2022-08-01T05:00:49;99839.56;;;20.83
24740;BMP280;45234;48.148;17.128;2022-08-01T05:03:16;99845.31;;;20.95
24740;BMP280;45234;48.148;17.128;2022-08-01T05:05:43;99843.66;;;21.09
24740;BMP280;45234;48.148;17.128;2022-08-01T05:08:10;99841.00;;;21.19
24740;BMP280;45234;48.148;17.128;2022-08-01T05:10:37;99845.75;;;21.22
24740;BMP280;45234;48.148;17.128;2022-08-01T05:13:04;99846.78;;;21.21
24740;BMP280;45234;48.148;17.128;2022-08-01T05:15:34;99843.69;;;21.04
24740;BMP280;45234;48.148;17.128;2022-08-01T05:18:01;99846.88;;;21.01
24740;BMP280;45234;48.148;17.128;2022-08-01T05:20:28;99838.44;;;20.99
24740;BMP280;45234;48.148;17.128;2022-08-01T05:22:55;99853.19;;;21.05
24740;BMP280;45234;48.148;17.128;2022-08-01T05:27:36;99841.47;;;21.27
24740;BMP280;45234;48.148;17.128;2022-08-01T05:30:07;99838.75;;;21.47
24740;BMP280;45234;48.148;17.128;2022-08-01T05:32:34;99847.00;;;21.69
24740;BMP280;45234;48.148;17.128;2022-08-01T05:35:01;99843.25;;;21.80
24740;BMP280;45234;48.148;17.128;2022-08-01T05:37:29;99851.66;;;21.82
24740;BMP280;45234;48.148;17.128;2022-08-01T05:39:57;99839.84;;;21.80
24740;BMP280;45234;48.148;17.128;2022-08-01T05:42:24;99851.75;;;21.72
24740;BMP280;45234;48.148;17.128;2022-08-01T05:44:51;99845.25;;;21.65
24740;BMP280;45234;48.148;17.128;2022-08-01T05:47:18;99850.22;;;21.61
24740;BMP280;45234;48.148;17.128;2022-08-01T05:49:45;99848.44;;;21.56
24740;BMP280;45234;48.148;17.128;2022-08-01T05:52:13;99852.94;;;21.56
24740;BMP280;45234;48.148;17.128;2022-08-01T05:54:40;99841.25;;;21.62
24740;BMP280;45234;48.148;17.128;2022-08-01T05:57:08;99848.81;;;21.74
24740;BMP280;45234;48.148;17.128;2022-08-01T05:59:36;99849.16;;;22.01
24740;BMP280;45234;48.148;17.128;2022-08-01T06:02:04;99858.75;;;22.21
24740;BMP280;45234;48.148;17.128;2022-08-01T06:04:31;99855.00;;;22.27
24740;BMP280;45234;48.148;17.128;2022-08-01T06:06:59;99856.31;;;22.29
24740;BMP280;45234;48.148;17.128;2022-08-01T06:09:26;99857.88;;;22.30
24740;BMP280;45234;48.148;17.128;2022-08-01T06:11:53;99859.94;;;22.38
24740;BMP280;45234;48.148;17.128;2022-08-01T06:14:22;99863.47;;;22.53
24740;BMP280;45234;48.148;17.128;2022-08-01T06:16:49;99862.31;;;22.59
24740;BMP280;45234;48.148;17.128;2022-08-01T06:19:16;99856.66;;;22.70
24740;BMP280;45234;48.148;17.128;2022-08-01T06:21:47;99870.25;;;22.82
24740;BMP280;45234;48.148;17.128;2022-08-01T06:24:18;99865.22;;;23.05
24740;BMP280;45234;48.148;17.128;2022-08-01T06:26:45;99865.44;;;23.27
24740;BMP280;45234;48.148;17.128;2022-08-01T06:29:12;99864.38;;;23.47
24740;BMP280;45234;48.148;17.128;2022-08-01T06:31:40;99872.31;;;23.65
24740;BMP280;45234;48.148;17.128;2022-08-01T06:34:10;99870.84;;;23.73
24740;BMP280;45234;48.148;17.128;2022-08-01T06:36:42;99871.09;;;23.90
24740;BMP280;45234;48.148;17.128;2022-08-01T06:39:10;99869.50;;;24.08
24740;BMP280;45234;48.148;17.128;2022-08-01T06:41:38;99867.50;;;24.27
24740;BMP280;45234;48.148;17.128;2022-08-01T06:44:08;99876.41;;;24.50
24740;BMP280;45234;48.148;17.128;2022-08-01T06:46:35;99870.81;;;25.01
24740;BMP280;45234;48.148;17.128;2022-08-01T06:49:03;99880.94;;;26.02
24740;BMP280;45234;48.148;17.128;2022-08-01T06:51:32;99879.25;;;27.48
24740;BMP280;45234;48.148;17.128;2022-08-01T06:54:00;99883.91;;;29.07
24740;BMP280;45234;48.148;17.128;2022-08-01T06:56:29;99882.06;;;30.25
24740;BMP280;45234;48.148;17.128;2022-08-01T06:58:56;99883.50;;;31.02
24740;BMP280;45234;48.148;17.128;2022-08-01T07:01:29;99885.84;;;30.91
24740;BMP280;45234;48.148;17.128;2022-08-01T07:04:01;99891.94;;;30.49
24740;BMP280;45234;48.148;17.128;2022-08-01T07:06:31;99885.75;;;30.20
24740;BMP280;45234;48.148;17.128;2022-08-01T07:09:03;99879.13;;;30.30
24740;BMP280;45234;48.148;17.128;2022-08-01T07:11:40;99882.53;;;30.15
24740;BMP280;45234;48.148;17.128;2022-08-01T07:14:11;99890.53;;;29.78
24740;BMP280;45234;48.148;17.128;2022-08-01T07:16:41;99878.47;;;29.48
24740;BMP280;45234;48.148;17.128;2022-08-01T07:19:08;99885.75;;;29.27
24740;BMP280;45234;48.148;17.128;2022-08-01T07:21:36;99888.84;;;29.17
24740;BMP280;45234;48.148;17.128;2022-08-01T07:24:08;99888.66;;;29.34
24740;BMP280;45234;48.148;17.128;2022-08-01T07:26:43;99882.38;;;29.18
24740;BMP280;45234;48.148;17.128;2022-08-01T07:29:23;99884.19;;;29.26
24740;BMP280;45234;48.148;17.128;2022-08-01T07:31:52;99885.53;;;29.32
24740;BMP280;45234;48.148;17.128;2022-08-01T07:34:20;99886.91;;;29.38
24740;BMP280;45234;48.148;17.128;2022-08-01T07:36:47;99883.19;;;29.63
24740;BMP280;45234;48.148;17.128;2022-08-01T07:39:16;99890.97;;;30.29
24740;BMP280;45234;48.148;17.128;2022-08-01T07:41:43;99885.38;;;31.02
24740;BMP280;45234;48.148;17.128;2022-08-01T07:44:30;99888.47;;;31.47
24740;BMP280;45234;48.148;17.128;2022-08-01T07:47:00;99885.03;;;31.62
24740;BMP280;45234;48.148;17.128;2022-08-01T07:49:27;99885.00;;;31.78
24740;BMP280;45234;48.148;17.128;2022-08-01T07:51:55;99886.69;;;32.02
24740;BMP280;45234;48.148;17.128;2022-08-01T07:54:33;99890.34;;;32.28
24740;BMP280;45234;48.148;17.128;2022-08-01T07:57:02;99886.06;;;32.43
24740;BMP280;45234;48.148;17.128;2022-08-01T07:59:30;99883.63;;;32.57
24740;BMP280;45234;48.148;17.128;2022-08-01T08:01:57;99887.59;;;32.44
24740;BMP280;45234;48.148;17.128;2022-08-01T08:04:24;99888.28;;;32.60
24740;BMP280;45234;48.148;17.128;2022-08-01T08:06:51;99885.34;;;32.46
24740;BMP280;45234;48.148;17.128;2022-08-01T08:09:20;99889.59;;;32.47
24740;BMP280;45234;48.148;17.128;2022-08-01T08:11:47;99891.75;;;32.61
24740;BMP280;45234;48.148;17.128;2022-08-01T08:14:17;99883.50;;;32.69
24740;BMP280;45234;48.148;17.128;2022-08-01T08:16:46;99884.06;;;32.78
24740;BMP280;45234;48.148;17.128;2022-08-01T08:19:13;99885.34;;;32.84
24740;BMP280;45234;48.148;17.128;2022-08-01T08:21:42;99891.91;;;33.10
24740;BMP280;45234;48.148;17.128;2022-08-01T08:24:10;99887.53;;;33.24
24740;BMP280;45234;48.148;17.128;2022-08-01T08:26:54;99887.38;;;33.14
24740;BMP280;45234;48.148;17.128;2022-08-01T08:29:22;99885.72;;;33.06
24740;BMP280;45234;48.148;17.128;2022-08-01T08:31:50;99890.13;;;32.95
24740;BMP280;45234;48.148;17.128;2022-08-01T08:34:19;99905.97;;;32.61
24740;BMP280;45234;48.148;17.128;2022-08-01T08:36:48;99904.41;;;32.06
24740;BMP280;45234;48.148;17.128;2022-08-01T08:39:15;99908.44;;;31.50
24740;BMP280;45234;48.148;17.128;2022-08-01T08:41:46;99909.56;;;30.77
24740;BMP280;45234;48.148;17.128;2022-08-01T08:44:15;99903.75;;;30.35
24740;BMP280;45234;48.148;17.128;2022-08-01T08:46:45;99902.34;;;30.14
24740;BMP280;45234;48.148;17.128;2022-08-01T08:49:17;99906.59;;;30.15
24740;BMP280;45234;48.148;17.128;2022-08-01T08:51:47;99901.25;;;30.15
24740;BMP280;45234;48.148;17.128;2022-08-01T08:54:14;99911.72;;;30.32
24740;BMP280;45234;48.148;17.128;2022-08-01T08:56:42;99911.34;;;30.33
24740;BMP280;45234;48.148;17.128;2022-08-01T08:59:12;99912.94;;;30.10
24740;BMP280;45234;48.148;17.128;2022-08-01T09:01:41;99913.13;;;29.93
24740;BMP280;45234;48.148;17.128;2022-08-01T09:04:08;99914.25;;;29.80
24740;BMP280;45234;48.148;17.128;2022-08-01T09:06:35;99906.34;;;29.83
24740;BMP280;45234;48.148;17.128;2022-08-01T09:09:02;99909.78;;;29.84
24740;BMP280;45234;48.148;17.128;2022-08-01T09:11:31;99909.19;;;29.54
24740;BMP280;45234;48.148;17.128;2022-08-01T09:14:17;99908.97;;;29.47
24740;BMP280;45234;48.148;17.128;2022-08-01T09:17:08;99918.94;;;29.38
24740;BMP280;45234;48.148;17.128;2022-08-01T09:19:41;99914.38;;;29.06
24740;BMP280;45234;48.148;17.128;2022-08-01T09:22:12;99914.94;;;28.90
24740;BMP280;45234;48.148;17.128;2022-08-01T09:24:56;99926.56;;;28.94
24740;BMP280;45234;48.148;17.128;2022-08-01T09:27:24;99917.94;;;28.89
24740;BMP280;45234;48.148;17.128;2022-08-01T09:29:52;99931.91;;;28.94
24740;BMP280;45234;48.148;17.128;2022-08-01T09:32:31;99930.13;;;28.98
24740;BMP280;45234;48.148;17.128;2022-08-01T09:37:48;99941.47;;;28.66
24740;BMP280;45234;48.148;17.128;2022-08-01T09:40:15;99941.66;;;28.61
24740;BMP280;45234;48.148;17.128;2022-08-01T09:42:43;99939.34;;;28.60
24740;BMP280;45234;48.148;17.128;2022-08-01T09:45:30;99941.56;;;28.49
24740;BMP280;45234;48.148;17.128;2022-08-01T09:48:09;99941.03;;;28.35
24740;BMP280;45234;48.148;17.128;2022-08-01T09:50:44;99945.03;;;28.20
24740;BMP280;45234;48.148;17.128;2022-08-01T09:53:14;99945.44;;;27.93
24740;BMP280;45234;48.148;17.128;2022-08-01T09:56:08;99949.66;;;27.85
24740;BMP280;45234;48.148;17.128;2022-08-01T09:58:48;99934.78;;;27.84
24740;BMP280;45234;48.148;17.128;2022-08-01T10:01:24;99940.22;;;27.96
24740;BMP280;45234;48.148;17.128;2022-08-01T10:04:04;99948.75;;;27.90
24740;BMP280;45234;48.148;17.128;2022-08-01T10:06:35;99946.34;;;27.97
24740;BMP280;45234;48.148;17.128;2022-08-01T10:09:03;99943.84;;;28.00
24740;BMP280;45234;48.148;17.128;2022-08-01T10:11:30;99952.63;;;28.01
24740;BMP280;45234;48.148;17.128;2022-08-01T10:14:02;99942.13;;;27.87
24740;BMP280;45234;48.148;17.128;2022-08-01T10:16:32;99940.44;;;27.83
24740;BMP280;45234;48.148;17.128;2022-08-01T10:19:03;99939.06;;;27.68
24740;BMP280;45234;48.148;17.128;2022-08-01T10:21:36;99931.84;;;27.69
24740;BMP280;45234;48.148;17.128;2022-08-01T10:24:25;99930.34;;;27.97
24740;BMP280;45234;48.148;17.128;2022-08-01T10:26:55;99929.84;;;28.21
24740;BMP280;45234;48.148;17.128;2022-08-01T10:29:25;99927.25;;;28.33
24740;BMP280;45234;48.148;17.128;2022-08-01T10:32:12;99919.31;;;28.53
24740;BMP280;45234;48.148;17.128;2022-08-01T10:34:40;99921.59;;;28.64
24740;BMP280;45234;48.148;17.128;2022-08-01T10:37:10;99920.44;;;28.44
24740;BMP280;45234;48.148;17.128;2022-08-01T10:39:39;99915.50;;;28.63
24740;BMP280;45234;48.148;17.128;2022-08-01T10:42:08;99916.50;;;28.91
24740;BMP280;45234;48.148;17.128;2022-08-01T10:44:45;99917.38;;;29.04
24740;BMP280;45234;48.148;17.128;2022-08-01T10:47:18;99913.56;;;29.26
24740;BMP280;45234;48.148;17.128;2022-08-01T10:53:06;99908.72;;;28.86
24740;BMP280;45234;48.148;17.128;2022-08-01T10:58:13;99909.03;;;28.64
24740;BMP280;45234;48.148;17.128;2022-08-01T11:00:47;99911.75;;;28.56
24740;BMP280;45234;48.148;17.128;2022-08-01T11:03:15;99890.78;;;28.45
24740;BMP280;45234;48.148;17.128;2022-08-01T11:06:20;99893.56;;;28.49
24740;BMP280;45234;48.148;17.128;2022-08-01T11:08:50;99893.88;;;28.77
24740;BMP280;45234;48.148;17.128;2022-08-01T11:11:20;99885.53;;;28.78
24740;BMP280;45234;48.148;17.128;2022-08-01T11:16:26;99882.91;;;28.90
24740;BMP280;45234;48.148;17.128;2022-08-01T11:18:57;99880.84;;;29.17
24740;BMP280;45234;48.148;17.128;2022-08-01T11:27:20;99883.63;;;30.02
24740;BMP280;45234;48.148;17.128;2022-08-01T11:32:57;99874.25;;;30.32
24740;BMP280;45234;48.148;17.128;2022-08-01T11:35:38;99874.66;;;30.46
24740;BMP280;45234;48.148;17.128;2022-08-01T11:38:27;99876.09;;;30.56
24740;BMP280;45234;48.148;17.128;2022-08-01T11:51:59;99850.63;;;30.34
24740;BMP280;45234;48.148;17.128;2022-08-01T11:54:30;99852.38;;;30.42
24740;BMP280;45234;48.148;17.128;2022-08-01T11:57:06;99852.50;;;30.46
24740;BMP280;45234;48.148;17.128;2022-08-01T11:59:42;99850.41;;;30.67
24740;BMP280;45234;48.148;17.128;2022-08-01T12:02:38;99848.72;;;30.74
24740;BMP280;45234;48.148;17.128;2022-08-01T12:05:06;99849.84;;;30.61
24740;BMP280;45234;48.148;17.128;2022-08-01T12:07:38;99843.03;;;30.91
24740;BMP280;45234;48.148;17.128;2022-08-01T12:10:17;99837.66;;;30.48
24740;BMP280;45234;48.148;17.128;2022-08-01T12:12:49;99838.41;;;30.21
24740;BMP280;45234;48.148;17.128;2022-08-01T12:15:18;99845.53;;;30.05
24740;BMP280;45234;48.148;17.128;2022-08-01T12:17:50;99837.09;;;30.03
24740;BMP280;45234;48.148;17.128;2022-08-01T12:20:24;99841.38;;;30.19
24740;BMP280;45234;48.148;17.128;2022-08-01T12:22:57;99826.25;;;30.23
24740;BMP280;45234;48.148;17.128;2022-08-01T12:25:24;99837.09;;;30.03
24740;BMP280;45234;48.148;17.128;2022-08-01T12:27:51;99834.22;;;29.83
24740;BMP280;45234;48.148;17.128;2022-08-01T12:30:23;99824.63;;;29.70
24740;BMP280;45234;48.148;17.128;2022-08-01T12:33:04;99824.25;;;29.35
24740;BMP280;45234;48.148;17.128;2022-08-01T12:35:32;99843.81;;;29.27
24740;BMP280;45234;48.148;17.128;2022-08-01T12:38:01;99841.25;;;29.19
24740;BMP280;45234;48.148;17.128;2022-08-01T12:40:31;99838.13;;;29.17
24740;BMP280;45234;48.148;17.128;2022-08-01T12:43:00;99841.91;;;29.16
24740;BMP280;45234;48.148;17.128;2022-08-01T12:45:44;99835.19;;;29.10
24740;BMP280;45234;48.148;17.128;2022-08-01T12:48:23;99831.97;;;29.04
24740;BMP280;45234;48.148;17.128;2022-08-01T12:50:51;99830.72;;;29.02
24740;BMP280;45234;48.148;17.128;2022-08-01T12:53:20;99826.38;;;28.97
24740;BMP280;45234;48.148;17.128;2022-08-01T12:55:52;99833.41;;;29.02
24740;BMP280;45234;48.148;17.128;2022-08-01T12:58:35;99825.78;;;28.91
24740;BMP280;45234;48.148;17.128;2022-08-01T13:01:03;99826.50;;;29.00
24740;BMP280;45234;48.148;17.128;2022-08-01T13:03:30;99826.94;;;29.02
24740;BMP280;45234;48.148;17.128;2022-08-01T13:05:58;99816.69;;;28.92
24740;BMP280;45234;48.148;17.128;2022-08-01T13:13:37;99812.25;;;28.96
24740;BMP280;45234;48.148;17.128;2022-08-01T13:16:05;99816.03;;;28.95
24740;BMP280;45234;48.148;17.128;2022-08-01T13:18:34;99809.91;;;28.95
24740;BMP280;45234;48.148;17.128;2022-08-01T13:23:59;99810.72;;;28.95
24740;BMP280;45234;48.148;17.128;2022-08-01T13:29:06;99808.06;;;29.08
24740;BMP280;45234;48.148;17.128;2022-08-01T13:31:34;99807.91;;;29.25
24740;BMP280;45234;48.148;17.128;2022-08-01T13:34:02;99801.44;;;29.38
24740;BMP280;45234;48.148;17.128;2022-08-01T13:36:29;99808.38;;;29.51
24740;BMP280;45234;48.148;17.128;2022-08-01T13:38:59;99810.50;;;29.58
24740;BMP280;45234;48.148;17.128;2022-08-01T13:41:45;99806.13;;;29.65
24740;BMP280;45234;48.148;17.128;2022-08-01T13:44:13;99806.34;;;29.72
24740;BMP280;45234;48.148;17.128;2022-08-01T13:46:42;99811.81;;;29.76
24740;BMP280;45234;48.148;17.128;2022-08-01T13:49:18;99813.56;;;29.84
24740;BMP280;45234;48.148;17.128;2022-08-01T13:51:45;99816.25;;;29.96
24740;BMP280;45234;48.148;17.128;2022-08-01T13:54:13;99808.50;;;30.19
24740;BMP280;45234;48.148;17.128;2022-08-01T13:56:40;99814.53;;;30.28
24740;BMP280;45234;48.148;17.128;2022-08-01T13:59:07;99809.59;;;30.30
24740;BMP280;45234;48.148;17.128;2022-08-01T14:01:35;99811.59;;;30.45
24740;BMP280;45234;48.148;17.128;2022-08-01T14:04:04;99817.50;;;30.38
24740;BMP280;45234;48.148;17.128;2022-08-01T14:06:32;99813.47;;;30.45
24740;BMP280;45234;48.148;17.128;2022-08-01T14:08:59;99811.31;;;30.50
24740;BMP280;45234;48.148;17.128;2022-08-01T14:11:27;99807.69;;;30.42
24740;BMP280;45234;48.148;17.128;2022-08-01T14:14:02;99814.47;;;30.12
24740;BMP280;45234;48.148;17.128;2022-08-01T14:16:30;99823.94;;;29.98
24740;BMP280;45234;48.148;17.128;2022-08-01T14:18:57;99822.63;;;29.79
24740;BMP280;45234;48.148;17.128;2022-08-01T14:21:24;99828.97;;;29.63
24740;BMP280;45234;48.148;17.128;2022-08-01T14:23:56;99840.75;;;29.50
24740;BMP280;45234;48.148;17.128;2022-08-01T14:26:23;99866.28;;;29.26
24740;BMP280;45234;48.148;17.128;2022-08-01T14:28:50;99891.91;;;29.07
24740;BMP280;45234;48.148;17.128;2022-08-01T14:31:17;99904.25;;;28.49
24740;BMP280;45234;48.148;17.128;2022-08-01T14:33:44;99915.69;;;27.82
24740;BMP280;45234;48.148;17.128;2022-08-01T14:36:11;99908.09;;;27.03
24740;BMP280;45234;48.148;17.128;2022-08-01T14:38:57;99908.16;;;26.64
24740;BMP280;45234;48.148;17.128;2022-08-01T14:41:25;99908.38;;;26.28
24740;BMP280;45234;48.148;17.128;2022-08-01T14:43:53;99910.28;;;26.05
24740;BMP280;45234;48.148;17.128;2022-08-01T14:46:23;99904.72;;;25.84
24740;BMP280;45234;48.148;17.128;2022-08-01T14:48:52;99905.44;;;25.54
24740;BMP280;45234;48.148;17.128;2022-08-01T14:51:19;99892.28;;;25.27
24740;BMP280;45234;48.148;17.128;2022-08-01T14:53:46;99877.69;;;25.16
24740;BMP280;45234;48.148;17.128;2022-08-01T14:56:18;99870.59;;;25.11
24740;BMP280;45234;48.148;17.128;2022-08-01T14:58:45;99863.75;;;25.10
24740;BMP280;45234;48.148;17.128;2022-08-01T15:01:14;99854.41;;;25.13
24740;BMP280;45234;48.148;17.128;2022-08-01T15:03:41;99852.41;;;25.18
24740;BMP280;45234;48.148;17.128;2022-08-01T15:06:09;99854.97;;;25.23